TimePST,TemperatureF,Dew PointF,Humidity,Sea Level PressureIn,VisibilityMPH,Wind Direction,Wind SpeedMPH,Gust SpeedMPH,PrecipitationIn,Events,Conditions,WindDirDegrees,DateUTC
12:58 AM,47.3,35.6,64,30.08,10.0,WSW,2.3,-,N/A,,Clear,250,2014-02-13 08:58:00
1:58 AM,45.5,33.6,63,30.07,10.0,Calm,Calm,-,N/A,,Clear,0,2014-02-13 09:58:00
2:58 AM,44.2,33.3,65,30.05,10.0,Calm,Calm,-,N/A,,Clear,0,2014-02-13 10:58:00
3:58 AM,43.3,34.0,70,30.05,10.0,Calm,Calm,-,N/A,,Clear,0,2014-02-13 11:58:00
4:58 AM,46.4,34.2,62,30.06,10.0,ESE,2.3,-,N/A,,Clear,110,2014-02-13 12:58:00
5:58 AM,43.2,32.9,67,30.07,10.0,Calm,Calm,-,N/A,,Clear,0,2014-02-13 13:58:00
6:58 AM,41.7,33.6,73,30.10,10.0,WNW,2.3,-,N/A,,Clear,290,2014-02-13 14:58:00
7:58 AM,52.0,35.1,53,30.09,10.0,ENE,1.2,-,N/A,,Clear,70,2014-02-13 15:58:00
8:58 AM,59.0,36.5,43,30.10,10.0,Calm,Calm,-,N/A,,Clear,0,2014-02-13 16:58:00
9:58 AM,68.5,34.3,28,30.08,10.0,ESE,3.5,-,N/A,,Clear,110,2014-02-13 17:58:00
10:58 AM,74.5,33.6,22,30.07,10.0,ESE,4.6,-,N/A,,Clear,120,2014-02-13 18:58:00
11:58 AM,79.3,32.9,19,30.04,10.0,North,4.6,-,N/A,,Clear,350,2014-02-13 19:58:00
12:58 PM,83.3,27.7,13,30.01,10.0,NW,12.7,-,N/A,,Clear,320,2014-02-13 20:58:00
1:58 PM,84.4,28.9,13,29.99,10.0,West,8.1,-,N/A,,Clear,280,2014-02-13 21:58:00
2:58 PM,83.1,29.8,14,29.99,10.0,WNW,10.4,-,N/A,,Clear,290,2014-02-13 22:58:00
3:58 PM,81.5,30.4,16,29.98,10.0,NW,8.1,-,N/A,,Clear,310,2014-02-13 23:58:00
4:58 PM,79.0,30.7,17,29.99,10.0,West,5.8,-,N/A,,Clear,270,2014-02-14 00:58:00
5:58 PM,72.9,33.3,23,30.00,10.0,WSW,4.6,-,N/A,,Clear,240,2014-02-14 01:58:00
6:58 PM,61.3,33.1,35,30.03,10.0,NNW,10.4,-,N/A,,Clear,330,2014-02-14 02:58:00
7:58 PM,64.2,35.2,34,30.03,10.0,Variable,2.3,-,N/A,,Clear,0,2014-02-14 03:58:00
8:58 PM,56.3,33.3,42,30.03,10.0,NW,2.3,-,N/A,,Clear,310,2014-02-14 04:58:00
9:58 PM,52.9,32.0,45,30.04,10.0,NW,3.5,-,N/A,,Clear,310,2014-02-14 05:58:00
10:58 PM,50.5,32.5,50,30.03,10.0,NW,3.5,-,N/A,,Clear,320,2014-02-14 06:58:00
11:58 PM,47.5,32.0,55,30.04,10.0,WNW,4.6,-,N/A,,Clear,290,2014-02-14 07:58:00